Time;durP1;ratioP1;P1;durP2;ratioP2;P2;SDS_P1;SDS_P2;PMS_P1;PMS_P2;Temp;Humidity;BMP_temperature;BMP_pressure;BME280_temperature;BME280_humidity;BME280_pressure;Samples;Min_cycle;Max_cycle;Signal;HPM_P1;HPM_P2
2020/12/31 00:00:03;;;;;;;13.80;4.85;;;4.20;99.90;;;4.80;83.03;100027.91;5073176;28;20211;-69
2020/12/31 00:02:33;;;;;;;13.45;4.75;;;4.10;99.90;;;4.77;83.09;100028.00;5073263;28;20292;-68
2020/12/31 00:04:59;;;;;;;11.35;4.45;;;4.10;99.90;;;4.77;82.95;100031.41;5073156;28;20180;-68
2020/12/31 00:07:25;;;;;;;12.55;4.97;;;4.10;99.90;;;4.75;83.09;100032.34;5073244;28;20192;-68
2020/12/31 00:09:51;;;;;;;13.43;5.03;;;4.00;99.90;;;4.70;82.97;100029.91;5071587;28;20188;-68
2020/12/31 00:12:18;;;;;;;12.73;5.20;;;3.90;99.90;;;4.70;83.12;100027.31;5073129;28;20665;-68
2020/12/31 00:14:45;;;;;;;12.40;4.82;;;3.90;99.90;;;4.69;83.52;100043.72;5073222;28;20577;-68
2020/12/31 00:17:11;;;;;;;12.57;4.70;;;4.00;99.90;;;4.71;83.55;100044.53;5073093;28;20208;-68
2020/12/31 00:19:38;;;;;;;14.68;5.47;;;4.00;99.90;;;4.75;83.35;100045.31;5064570;28;20215;-65
2020/12/31 00:22:04;;;;;;;13.90;5.50;;;4.00;99.90;;;4.78;83.27;100046.09;5072504;28;20274;-68
2020/12/31 00:24:30;;;;;;;12.07;4.67;;;4.10;99.90;;;4.80;83.56;100046.91;5073088;28;20561;-68
2020/12/31 00:26:56;;;;;;;13.60;4.95;;;4.10;99.90;;;4.83;83.48;100046.81;5073042;28;20242;-68
2020/12/31 00:29:22;;;;;;;13.52;4.97;;;4.10;99.90;;;4.86;83.54;100049.34;5072684;28;20230;-68
2020/12/31 00:31:49;;;;;;;14.98;5.00;;;4.20;99.90;;;4.87;83.32;100053.63;5070965;28;20558;-68
2020/12/31 00:34:16;;;;;;;12.13;4.47;;;4.20;99.90;;;4.90;83.21;100050.97;5051248;28;20197;-69
2020/12/31 00:36:42;;;;;;;13.15;5.32;;;4.20;99.90;;;4.91;83.36;100050.06;5052589;28;20723;-68
2020/12/31 00:39:09;;;;;;;10.63;4.32;;;4.20;99.90;;;4.91;83.40;100060.44;5052355;28;20189;-68
2020/12/31 00:41:35;;;;;;;14.27;4.75;;;4.20;99.90;;;4.90;83.59;100057.88;5052711;28;20212;-69
2020/12/31 00:44:04;;;;;;;12.88;5.10;;;4.20;99.90;;;4.88;83.44;100059.66;5051336;28;20184;-68
2020/12/31 00:46:31;;;;;;;12.60;4.70;;;4.30;99.90;;;4.90;83.65;100057.88;5052426;28;20188;-68
2020/12/31 00:48:58;;;;;;;11.27;4.53;;;4.30;99.90;;;4.89;83.55;100064.78;5052153;28;20196;-68
2020/12/31 00:51:24;;;;;;;10.55;4.30;;;4.30;99.90;;;4.89;83.50;100067.38;5067616;28;20209;-68
2020/12/31 00:53:51;;;;;;;11.75;4.35;;;4.30;99.90;;;4.88;83.56;100062.25;5051256;28;20279;-68
2020/12/31 00:56:19;;;;;;;11.57;4.73;;;4.20;99.90;;;4.88;83.34;100065.69;5052253;28;20197;-68
2020/12/31 00:58:46;;;;;;;11.02;4.60;;;4.20;99.90;;;4.90;83.27;100073.44;5076059;28;20196;-68
2020/12/31 01:01:13;;;;;;;11.88;4.70;;;4.20;99.90;;;4.92;83.27;100067.31;5052319;28;20195;-68
2020/12/31 01:03:39;;;;;;;12.57;4.40;;;4.20;99.90;;;4.92;83.15;100067.31;5051369;28;20189;-65
2020/12/31 01:06:06;;;;;;;12.03;4.57;;;4.20;99.90;;;4.88;83.07;100070.03;5051845;28;20185;-68
2020/12/31 01:08:32;;;;;;;11.90;4.68;;;4.20;99.90;;;4.86;83.31;100069.22;5051978;28;20181;-68
2020/12/31 01:10:58;;;;;;;12.43;5.13;;;4.20;99.90;;;4.84;83.22;100074.44;5051871;28;20208;-68
2020/12/31 01:13:25;;;;;;;12.07;4.43;;;4.20;99.90;;;4.85;83.42;100065.78;5051725;28;20227;-68
2020/12/31 01:15:51;;;;;;;12.18;4.57;;;4.20;99.90;;;4.90;83.38;100079.47;5051767;28;20294;-67
2020/12/31 01:18:17;;;;;;;12.40;4.78;;;4.20;99.90;;;4.94;83.51;100075.91;5051281;28;20239;-67
2020/12/31 01:20:43;;;;;;;9.55;3.78;;;4.20;99.90;;;4.95;83.25;100080.22;5051449;28;20288;-68
2020/12/31 01:23:10;;;;;;;12.30;4.50;;;4.30;99.90;;;4.93;83.30;100079.41;5051579;28;20227;-68
2020/12/31 01:25:37;;;;;;;10.52;4.20;;;4.30;99.90;;;4.91;83.28;100082.91;5051782;28;20181;-68
2020/12/31 01:28:04;;;;;;;11.60;4.30;;;4.30;99.90;;;4.91;83.46;100077.72;5060388;28;20189;-67
2020/12/31 01:30:31;;;;;;;11.18;4.43;;;4.30;99.90;;;4.93;83.30;100081.13;5066372;28;20200;-68
2020/12/31 01:32:57;;;;;;;11.60;4.47;;;4.30;99.90;;;4.93;83.14;100084.56;5068327;28;20616;-68
2020/12/31 01:35:24;;;;;;;13.27;4.80;;;4.30;99.90;;;4.96;83.24;100081.91;5065018;28;20199;-68
2020/12/31 01:37:50;;;;;;;11.82;4.88;;;4.30;99.90;;;4.96;83.49;100088.81;5071377;28;20223;-68
2020/12/31 01:40:17;;;;;;;12.65;4.70;;;4.30;99.90;;;4.97;83.02;100083.59;5071156;28;20184;-68
2020/12/31 01:42:44;;;;;;;12.82;4.40;;;4.30;99.90;;;4.99;83.43;100092.19;5071297;28;20200;-68
2020/12/31 01:45:12;;;;;;;11.45;4.25;;;4.30;99.90;;;5.00;83.13;100091.31;5071329;28;20592;-68
2020/12/31 01:47:38;;;;;;;12.50;4.45;;;4.30;99.90;;;5.01;83.21;100090.41;5070398;28;20192;-68
2020/12/31 01:50:06;;;;;;;12.38;4.88;;;4.30;99.90;;;4.99;83.33;100102.56;5062416;28;20211;-68
2020/12/31 01:52:33;;;;;;;12.63;4.75;;;4.40;99.90;;;4.97;83.32;100096.56;5071109;28;20699;-68
2020/12/31 01:55:02;;;;;;;12.73;4.57;;;4.30;99.90;;;4.95;83.13;100103.53;5069737;28;20193;-68
2020/12/31 01:57:30;;;;;;;12.35;4.82;;;4.30;99.90;;;4.91;83.35;100106.22;5069791;28;20251;-68
2020/12/31 01:59:57;;;;;;;13.07;4.65;;;4.30;99.90;;;4.92;83.40;100113.97;5069505;28;20196;-68
2020/12/31 02:02:24;;;;;;;11.75;4.45;;;4.30;99.90;;;4.96;83.26;100101.78;5070787;28;20211;-68
2020/12/31 02:04:51;;;;;;;12.50;4.82;;;4.30;99.90;;;4.98;83.18;100100.00;5071055;28;20195;-68
2020/12/31 02:07:19;;;;;;;12.48;4.57;;;4.30;99.90;;;4.94;83.11;100099.22;5070987;28;20181;-68
2020/12/31 02:09:45;;;;;;;11.50;4.55;;;4.30;99.90;;;4.90;83.31;100089.84;5070285;28;20598;-68
2020/12/31 02:12:12;;;;;;;14.32;4.57;;;4.30;99.90;;;4.90;83.63;100095.03;5070655;28;20204;-67
2020/12/31 02:14:48;;;;;;;14.50;4.72;;;4.30;99.90;;;4.92;83.30;100098.41;5069443;28;20217;-68
2020/12/31 02:17:15;;;;;;;13.95;4.55;;;4.30;99.90;;;4.93;83.42;100092.34;5069244;28;20212;-68
2020/12/31 02:19:42;;;;;;;11.88;4.43;;;4.30;99.90;;;4.97;83.52;100100.91;5061811;28;20558;-67
2020/12/31 02:22:12;;;;;;;11.30;4.43;;;4.40;99.90;;;4.99;83.24;100101.69;5050944;28;20420;-68
2020/12/31 02:24:39;;;;;;;10.88;4.47;;;4.40;99.90;;;5.00;83.25;100101.69;5050793;28;20669;-68
2020/12/31 02:27:05;;;;;;;12.40;4.43;;;4.40;99.90;;;5.02;83.28;100096.47;5050792;28;20188;-68
2020/12/31 02:29:32;;;;;;;13.05;4.68;;;4.40;99.90;;;5.02;83.22;100102.47;5050582;28;20196;-68
2020/12/31 02:31:58;;;;;;;11.82;4.30;;;4.40;99.90;;;4.99;83.07;100105.16;5050796;28;20249;-68
2020/12/31 02:34:26;;;;;;;12.68;4.70;;;4.40;99.90;;;4.99;82.96;100105.16;5050572;28;20182;-68
2020/12/31 02:36:52;;;;;;;10.10;4.00;;;4.40;99.90;;;5.01;83.14;100105.97;5050789;28;20220;-68
2020/12/31 02:39:19;;;;;;;14.38;4.25;;;4.40;99.90;;;5.00;82.93;100106.00;5050306;28;20246;-68
2020/12/31 02:41:46;;;;;;;12.45;5.05;;;4.30;99.90;;;4.98;83.24;100103.47;5050635;28;20269;-68
2020/12/31 02:44:13;;;;;;;12.38;4.90;;;4.30;99.90;;;4.98;83.35;100098.28;5050609;28;20185;-68
2020/12/31 02:46:39;;;;;;;13.40;4.47;;;4.30;99.90;;;5.00;83.39;100106.00;5050522;28;20193;-68
2020/12/31 02:49:06;;;;;;;13.07;4.80;;;4.30;99.90;;;5.01;82.97;100098.19;5062761;28;20208;-68
2020/12/31 02:51:33;;;;;;;12.15;4.45;;;4.40;99.90;;;5.02;83.22;100107.66;5065654;28;20215;-68
2020/12/31 02:54:00;;;;;;;12.10;4.47;;;4.40;99.90;;;5.04;83.00;100098.09;5070963;28;20185;-68
2020/12/31 02:56:27;;;;;;;11.82;3.92;;;4.40;99.90;;;5.04;83.05;100103.28;5070474;28;20680;-68
2020/12/31 02:58:54;;;;;;;13.73;4.70;;;4.40;99.90;;;5.01;82.51;100098.19;5067188;28;20212;-69
2020/12/31 03:01:22;;;;;;;12.32;4.53;;;4.30;99.90;;;4.97;82.66;100112.09;5058416;28;20217;-68
2020/12/31 03:03:49;;;;;;;14.15;5.07;;;4.30;99.90;;;4.94;83.00;100106.13;5067827;28;20192;-68
2020/12/31 03:06:16;;;;;;;12.82;4.78;;;4.30;99.90;;;4.96;83.33;100113.00;5070484;28;20200;-68
2020/12/31 03:08:43;;;;;;;12.57;4.70;;;4.30;99.90;;;4.98;83.06;100113.81;5068941;28;20203;-68
2020/12/31 03:11:19;;;;;;;11.05;4.15;;;4.30;99.90;;;4.96;83.09;100112.16;5086139;28;20568;-68
2020/12/31 03:13:46;;;;;;;10.97;4.10;;;4.30;99.90;;;4.95;82.87;100113.03;5069733;28;20657;-68
2020/12/31 03:16:12;;;;;;;11.95;4.53;;;4.30;99.90;;;4.92;83.23;100113.97;5061885;28;20188;-68
2020/12/31 03:18:38;;;;;;;13.25;4.80;;;4.30;99.90;;;4.91;83.09;100117.44;5070131;28;20699;-67
2020/12/31 03:21:05;;;;;;;11.35;4.50;;;4.30;99.90;;;4.91;83.24;100114.84;5070295;28;20514;-68
2020/12/31 03:23:32;;;;;;;11.27;4.18;;;4.20;99.90;;;4.95;83.26;100120.81;5073876;28;20664;-67
2020/12/31 03:25:58;;;;;;;12.07;4.47;;;4.30;99.90;;;4.98;83.25;100115.56;5073826;28;20185;-67
2020/12/31 03:28:24;;;;;;;11.57;4.53;;;4.30;99.90;;;4.99;83.15;100114.66;5073731;28;20188;-68
2020/12/31 03:30:51;;;;;;;12.37;5.07;;;4.40;99.90;;;5.01;83.28;100112.88;5073631;28;20191;-68
2020/12/31 03:33:18;;;;;;;14.18;4.65;;;4.40;99.90;;;5.02;83.21;100112.00;5072881;28;20265;-67
2020/12/31 03:35:48;;;;;;;13.60;5.10;;;4.40;99.90;;;5.01;83.14;100108.56;5065199;28;20685;-67
2020/12/31 03:38:16;;;;;;;12.50;4.90;;;4.40;99.90;;;5.01;83.03;100116.34;5073490;28;20200;-67
2020/12/31 03:40:43;;;;;;;10.85;4.43;;;4.40;99.90;;;5.01;83.13;100108.56;5073588;28;20189;-68
2020/12/31 03:43:10;;;;;;;12.32;4.90;;;4.40;99.90;;;4.98;82.99;100107.78;5073671;28;20215;-68
2020/12/31 03:45:37;;;;;;;12.63;5.35;;;4.40;99.90;;;4.95;82.85;100113.91;5072331;28;20192;-68
2020/12/31 03:48:05;;;;;;;11.23;5.07;;;4.30;99.90;;;4.92;83.25;100119.13;5072327;28;20188;-67
2020/12/31 03:50:32;;;;;;;12.90;5.03;;;4.30;99.90;;;4.92;82.94;100113.13;5065117;28;20196;-68
2020/12/31 03:52:58;;;;;;;12.82;5.05;;;4.30;99.90;;;4.94;83.18;100112.19;5073285;28;20208;-68
2020/12/31 03:55:25;;;;;;;13.65;4.82;;;4.30;99.90;;;4.98;83.26;100116.41;5073529;28;20184;-67
2020/12/31 03:57:51;;;;;;;13.25;5.32;;;4.30;99.90;;;4.98;82.89;100119.00;5073278;28;20581;-68
2020/12/31 04:00:18;;;;;;;11.70;4.70;;;4.30;99.90;;;4.93;82.84;100118.28;5073199;28;20187;-69
2020/12/31 04:02:44;;;;;;;13.63;5.25;;;4.30;99.90;;;4.92;83.11;100113.13;5073143;28;20211;-68
2020/12/31 04:05:11;;;;;;;12.07;4.70;;;4.30;99.90;;;4.95;83.39;100108.72;5073435;28;20582;-68
2020/12/31 04:07:37;;;;;;;13.43;5.07;;;4.30;99.90;;;4.89;83.05;100118.38;5073276;28;20275;-68
2020/12/31 04:10:05;;;;;;;12.93;4.75;;;4.30;99.90;;;4.81;83.17;100115.97;5073094;28;20184;-68
2020/12/31 04:12:31;;;;;;;12.18;4.85;;;4.20;99.90;;;4.79;83.24;100116.88;5072981;28;20200;-68
2020/12/31 04:14:57;;;;;;;13.88;4.70;;;4.20;99.90;;;4.74;83.50;100114.41;5073145;28;20181;-68
2020/12/31 04:17:24;;;;;;;14.68;4.70;;;4.10;99.90;;;4.73;83.57;100110.13;5073002;28;20257;-68
2020/12/31 04:19:50;;;;;;;12.77;5.10;;;4.10;99.90;;;4.73;83.75;100117.03;5063845;28;20197;-68
2020/12/31 04:22:17;;;;;;;13.75;5.63;;;4.10;99.90;;;4.72;83.66;100116.19;5072977;28;20242;-67
2020/12/31 04:24:44;;;;;;;11.20;4.78;;;4.00;99.90;;;4.73;83.90;100112.72;5072865;28;20221;-68
2020/12/31 04:27:10;;;;;;;14.38;5.40;;;4.00;99.90;;;4.75;83.83;100116.13;5073030;28;20270;-67
2020/12/31 04:29:37;;;;;;;13.38;5.18;;;4.00;99.90;;;4.73;84.12;100119.63;5072870;28;20192;-68
2020/12/31 04:32:03;;;;;;;11.52;4.80;;;4.00;99.90;;;4.63;84.35;100116.41;5073002;28;20201;-68
2020/12/31 04:34:29;;;;;;;13.10;5.07;;;4.00;99.90;;;4.56;84.65;100122.63;5071363;28;20242;-68
2020/12/31 04:36:56;;;;;;;12.82;5.03;;;3.90;99.90;;;4.52;85.26;100117.56;5086119;28;20212;-68
2020/12/31 04:39:23;;;;;;;14.83;5.50;;;3.80;99.90;;;4.55;85.61;100128.69;5052480;28;20199;-67
2020/12/31 04:41:49;;;;;;;13.00;5.47;;;3.80;99.90;;;4.61;85.98;100118.19;5052400;28;20233;-68
2020/12/31 04:44:16;;;;;;;13.38;5.50;;;3.80;99.90;;;4.63;86.34;100119.00;5052297;28;20231;-68
2020/12/31 04:46:52;;;;;;;14.90;5.60;;;3.80;99.90;;;4.62;86.08;100127.66;5052406;28;20184;-68
2020/12/31 04:49:25;;;;;;;13.20;5.28;;;3.80;99.90;;;4.57;86.26;100124.31;5052167;28;20192;-68
2020/12/31 04:51:55;;;;;;;16.05;5.70;;;3.70;99.90;;;4.58;86.52;100128.63;5052393;28;20282;-68
2020/12/31 04:54:23;;;;;;;13.90;5.20;;;3.80;99.90;;;4.61;86.11;100128.53;5052554;28;20185;-68
2020/12/31 04:56:49;;;;;;;13.70;5.50;;;3.80;99.90;;;4.63;86.15;100123.31;5052318;28;20227;-68
2020/12/31 04:59:15;;;;;;;14.35;5.57;;;3.70;99.90;;;4.63;86.19;100125.91;5051929;28;20197;-67
2020/12/31 05:01:45;;;;;;;14.25;5.18;;;3.70;99.90;;;4.66;86.03;100131.88;5052228;28;20292;-68
2020/12/31 05:04:11;;;;;;;13.98;5.45;;;3.70;99.90;;;4.67;86.01;100133.56;5052214;28;20287;-68
2020/12/31 05:06:40;;;;;;;16.08;5.57;;;3.80;99.90;;;4.66;86.29;100138.78;5064494;28;20193;-67
2020/12/31 05:09:15;;;;;;;15.50;5.72;;;3.70;99.90;;;4.66;85.93;100137.06;5071913;28;20241;-70
2020/12/31 05:11:47;;;;;;;14.73;5.80;;;3.80;99.90;;;4.65;85.89;100139.69;5071887;28;20333;-67
2020/12/31 05:14:26;;;;;;;16.60;6.07;;;3.80;99.90;;;4.60;85.78;100147.56;5070878;28;20192;-68
2020/12/31 05:16:53;;;;;;;13.80;5.50;;;3.70;99.90;;;4.57;86.15;100145.03;5087629;28;20208;-68
2020/12/31 05:19:24;;;;;;;14.63;5.65;;;3.70;99.90;;;4.60;86.35;100147.56;5071740;28;20531;-68
2020/12/31 05:22:11;;;;;;;15.80;5.70;;;3.70;99.90;;;4.63;86.12;100147.50;5071669;28;20210;-68
2020/12/31 05:24:39;;;;;;;15.27;5.70;;;3.80;99.90;;;4.62;85.85;100148.38;5071831;28;20233;-68
2020/12/31 05:27:21;;;;;;;14.50;5.15;;;3.70;99.90;;;4.61;85.93;100154.44;5071772;28;20188;-68
2020/12/31 05:29:56;;;;;;;14.98;5.32;;;3.70;99.90;;;4.60;85.76;100151.91;5071442;28;20188;-68
2020/12/31 05:32:24;;;;;;;12.40;4.97;;;3.70;99.90;;;4.53;85.88;100158.97;5072025;28;20210;-68
2020/12/31 05:34:52;;;;;;;14.10;5.85;;;3.70;99.90;;;4.52;86.00;100152.06;5071167;28;20230;-68
2020/12/31 05:37:19;;;;;;;15.37;5.50;;;3.70;99.90;;;4.53;85.64;100160.69;5066931;28;20213;-67
2020/12/31 05:40:02;;;;;;;15.20;5.53;;;3.60;99.90;;;4.55;85.76;100157.19;5068858;28;20771;-68
2020/12/31 05:42:32;;;;;;;13.07;5.35;;;3.70;99.90;;;4.58;85.73;100154.53;5070553;28;20273;-68
2020/12/31 05:45:01;;;;;;;15.18;5.35;;;3.70;99.90;;;4.56;85.61;100158.88;5070828;28;20187;-67
2020/12/31 05:47:28;;;;;;;14.38;5.35;;;3.70;99.90;;;4.57;85.48;100165.75;5070592;28;20514;-68
2020/12/31 05:49:54;;;;;;;16.70;5.78;;;3.70;99.90;;;4.58;85.66;100164.88;5075600;28;20254;-68
2020/12/31 05:52:34;;;;;;;13.77;5.43;;;3.80;99.90;;;4.59;85.36;100171.75;5051472;28;20201;-68
2020/12/31 05:55:03;;;;;;;11.88;4.65;;;3.70;99.90;;;4.57;85.10;100168.34;5051804;28;20684;-68
2020/12/31 05:57:47;;;;;;;13.80;5.07;;;3.70;99.90;;;4.51;85.39;100167.63;5051657;28;20255;-68
2020/12/31 06:00:20;;;;;;;17.63;5.88;;;3.70;99.90;;;4.47;85.26;100177.22;5049983;28;20185;-68
2020/12/31 06:02:51;;;;;;;13.55;4.93;;;3.70;99.90;;;4.46;85.24;100178.09;5051292;28;20204;-68
2020/12/31 06:05:19;;;;;;;13.40;5.22;;;3.60;99.90;;;4.43;85.26;100180.75;5051638;28;20189;-68
2020/12/31 06:07:49;;;;;;;16.48;5.30;;;3.60;99.90;;;4.39;85.13;100173.94;5051255;28;20199;-67
2020/12/31 06:10:23;;;;;;;13.35;5.38;;;3.50;99.90;;;4.35;85.05;100174.91;5051125;28;20187;-68
2020/12/31 06:12:54;;;;;;;14.02;5.60;;;3.50;99.90;;;4.33;85.22;100179.25;5051218;28;20215;-68
2020/12/31 06:15:23;;;;;;;14.48;5.22;;;3.50;99.90;;;4.31;84.95;100181.03;5049952;28;20570;-68
2020/12/31 06:17:51;;;;;;;13.13;4.53;;;3.40;99.90;;;4.29;84.99;100176.75;5051801;28;20262;-68
2020/12/31 06:20:19;;;;;;;13.55;4.80;;;3.40;99.90;;;4.28;85.26;100175.06;5077764;28;20196;-68
2020/12/31 06:23:05;;;;;;;14.88;5.32;;;3.40;99.90;;;4.27;84.77;100179.38;5071174;28;20204;-68
2020/12/31 06:25:38;;;;;;;12.17;4.97;;;3.40;99.90;;;4.32;84.90;100185.31;5071059;28;20828;-68
2020/12/31 06:28:11;;;;;;;13.63;5.70;;;3.50;99.90;;;4.33;84.64;100179.25;5059460;28;20666;-67
2020/12/31 06:30:41;;;;;;;13.63;4.87;;;3.50;99.90;;;4.34;84.54;100180.94;5051254;28;20185;-68
2020/12/31 06:33:24;;;;;;;14.83;5.27;;;3.50;99.90;;;4.37;84.55;100185.22;5051373;28;20630;-68
2020/12/31 06:35:55;;;;;;;13.02;5.65;;;3.60;99.90;;;4.35;84.33;100187.84;5051450;28;20195;-69
2020/12/31 06:38:34;;;;;;;14.20;5.07;;;3.50;99.90;;;4.26;84.20;100188.03;5049316;28;20580;-69
2020/12/31 06:41:02;;;;;;;12.80;5.10;;;3.50;99.90;;;4.27;84.31;100192.31;5060409;28;20188;-68
2020/12/31 06:43:38;;;;;;;12.45;4.50;;;3.50;99.90;;;4.23;84.31;100203.63;5071558;28;20191;-68
2020/12/31 06:46:19;;;;;;;11.40;4.30;;;3.50;99.90;;;4.18;83.98;100208.06;5070006;28;20261;-68
2020/12/31 06:48:51;;;;;;;13.38;4.57;;;3.40;99.90;;;4.14;84.22;100210.72;5070940;28;20192;-68
2020/12/31 06:51:24;;;;;;;12.93;5.10;;;3.40;99.90;;;4.13;84.16;100209.88;5071095;28;20211;-68
2020/12/31 06:53:51;;;;;;;14.77;4.90;;;3.40;99.90;;;4.12;83.87;100208.16;5071213;28;20207;-68
2020/12/31 06:56:41;;;;;;;14.70;5.03;;;3.30;99.90;;;4.13;83.98;100209.88;5071183;28;20192;-68
2020/12/31 06:59:30;;;;;;;12.70;4.37;;;3.30;99.90;;;4.13;83.93;100212.47;5065204;28;20203;-68
2020/12/31 07:01:58;;;;;;;14.17;4.93;;;3.30;99.90;;;4.14;83.75;100219.34;5074740;28;20692;-68
2020/12/31 07:04:32;;;;;;;10.73;4.25;;;3.30;99.90;;;4.13;84.00;100217.66;5073960;28;20714;-68
2020/12/31 07:07:00;;;;;;;14.13;5.20;;;3.30;99.90;;;4.12;83.62;100220.28;5064950;28;20253;-68
2020/12/31 07:09:37;;;;;;;13.57;4.60;;;3.30;99.90;;;4.08;83.90;100227.25;5073162;28;20196;-68
2020/12/31 07:12:07;;;;;;;14.35;5.25;;;3.20;99.90;;;4.01;83.80;100225.66;5072941;28;20591;-67
2020/12/31 07:14:35;;;;;;;16.83;5.05;;;3.20;99.90;;;3.96;83.79;100217.13;5073097;28;20188;-68
2020/12/31 07:17:05;;;;;;;14.33;5.27;;;3.20;99.90;;;3.96;84.05;100218.84;5074482;28;20286;-68
2020/12/31 07:19:42;;;;;;;14.25;4.93;;;3.10;99.90;;;3.91;83.95;100223.25;5074890;28;20184;-67
2020/12/31 07:22:22;;;;;;;16.10;5.93;;;3.10;99.90;;;3.86;83.87;100218.16;5074921;28;20208;-68
2020/12/31 07:24:55;;;;;;;16.63;5.57;;;3.10;99.90;;;3.82;83.70;100216.50;5063746;28;20181;-68
2020/12/31 07:27:27;;;;;;;19.15;6.57;;;3.00;99.90;;;3.79;83.71;100221.75;5074327;28;20729;-69
2020/12/31 07:30:18;;;;;;;12.53;4.70;;;3.00;99.90;;;3.78;84.08;100218.28;5063610;28;20197;-68
2020/12/31 07:32:50;;;;;;;15.27;5.70;;;3.00;99.90;;;3.76;83.79;100225.25;5074482;28;20196;-68
2020/12/31 07:35:39;;;;;;;14.20;5.37;;;3.00;99.90;;;3.74;83.74;100224.44;5074079;28;20540;-68
2020/12/31 07:38:09;;;;;;;15.07;5.40;;;2.90;99.90;;;3.76;84.18;100221.81;5072337;28;20220;-67
2020/12/31 07:40:39;;;;;;;13.37;5.00;;;3.00;99.90;;;3.76;84.08;100225.25;5064490;28;20197;-68
2020/12/31 07:43:09;;;;;;;14.37;5.43;;;3.00;99.90;;;3.78;83.90;100231.22;5062180;28;20216;-68
2020/12/31 07:45:37;;;;;;;18.47;5.90;;;3.00;99.90;;;3.77;83.54;100236.44;5053094;28;20720;-68
2020/12/31 07:48:04;;;;;;;13.97;5.27;;;3.00;99.90;;;3.77;83.89;100234.72;5053476;28;20250;-68
2020/12/31 07:50:30;;;;;;;13.93;5.23;;;2.90;99.90;;;3.77;83.55;100231.25;5062513;28;20265;-68
2020/12/31 07:52:58;;;;;;;16.97;6.13;;;3.00;99.90;;;3.78;83.75;100236.41;5073098;28;20211;-68
2020/12/31 07:55:25;;;;;;;14.27;4.93;;;3.00;99.90;;;3.82;83.59;100237.22;5073192;28;20225;-68
2020/12/31 07:57:52;;;;;;;12.83;4.47;;;3.00;99.90;;;3.84;83.61;100236.31;5073529;28;20238;-68
2020/12/31 08:00:20;;;;;;;15.53;5.23;;;3.10;99.90;;;3.84;83.55;100235.44;5073270;28;20238;-69
2020/12/31 08:02:51;;;;;;;14.30;4.97;;;3.10;99.90;;;3.86;83.75;100244.03;5073480;28;20204;-69
2020/12/31 08:05:20;;;;;;;16.63;5.70;;;3.10;99.90;;;3.88;83.43;100238.84;5073354;28;20192;-68
2020/12/31 08:07:52;;;;;;;14.60;5.40;;;3.10;99.90;;;3.91;83.47;100237.06;5072957;28;20192;-67
2020/12/31 08:10:19;;;;;;;16.57;5.53;;;3.20;99.90;;;3.94;83.65;100236.13;5073605;28;20193;-68
2020/12/31 08:12:56;;;;;;;13.13;4.87;;;3.20;99.90;;;4.01;83.14;100241.16;5073710;28;20204;-68
2020/12/31 08:15:23;;;;;;;14.35;5.15;;;3.30;99.90;;;4.06;83.30;100247.13;5073415;28;20180;-68
2020/12/31 08:17:53;;;;;;;12.07;4.97;;;3.30;99.90;;;4.05;83.13;100247.16;5073008;28;20211;-68
2020/12/31 08:20:21;;;;;;;14.55;5.05;;;3.30;99.90;;;4.10;83.29;100247.91;5081429;28;20622;-68
2020/12/31 08:22:53;;;;;;;12.77;5.00;;;3.30;99.90;;;4.13;83.13;100258.19;5055505;28;20577;-68
2020/12/31 08:25:25;;;;;;;15.52;5.25;;;3.40;99.90;;;4.16;83.05;100256.41;5051616;28;20407;-68
2020/12/31 08:27:55;;;;;;;13.32;4.38;;;3.40;99.90;;;4.20;82.91;100250.31;5052771;28;20239;-68
2020/12/31 08:30:23;;;;;;;12.75;4.55;;;3.50;99.90;;;4.24;82.78;100254.53;5052757;28;20740;-68
2020/12/31 08:32:57;;;;;;;12.00;4.88;;;3.60;99.90;;;4.33;82.59;100251.75;5068096;28;20262;-69
2020/12/31 08:35:26;;;;;;;12.63;4.67;;;3.60;99.90;;;4.35;82.77;100260.34;5052886;28;20180;-67
2020/12/31 08:38:02;;;;;;;12.40;4.85;;;3.70;99.90;;;4.40;82.84;100260.25;5051375;28;20236;-68
2020/12/31 08:40:30;;;;;;;12.30;4.45;;;3.80;99.90;;;4.44;82.75;100248.94;5054425;28;20202;-68
2020/12/31 08:42:57;;;;;;;14.02;4.55;;;3.80;99.90;;;4.45;82.48;100251.50;5064142;28;20689;-68
2020/12/31 08:45:30;;;;;;;12.10;4.95;;;3.90;99.90;;;4.48;82.59;100250.59;5072679;28;20180;-68
2020/12/31 08:48:15;;;;;;;11.52;4.60;;;3.90;99.90;;;4.49;82.36;100254.88;5072545;28;20259;-68
2020/12/31 08:50:58;;;;;;;12.48;4.57;;;3.90;99.90;;;4.50;82.14;100252.28;5072505;28;20200;-68
2020/12/31 08:53:24;;;;;;;12.57;4.93;;;3.90;99.90;;;4.53;82.27;100252.22;5072437;28;20270;-68
2020/12/31 08:55:50;;;;;;;11.98;4.60;;;4.00;99.90;;;4.57;82.17;100259.00;5070611;28;20645;-68
2020/12/31 08:58:18;;;;;;;11.43;4.40;;;4.00;99.90;;;4.61;82.18;100255.47;5071927;28;20215;-68
2020/12/31 09:00:45;;;;;;;10.00;4.55;;;4.00;99.90;;;4.66;81.84;100261.41;5072373;28;20241;-68
2020/12/31 09:03:11;;;;;;;12.00;4.75;;;4.10;99.90;;;4.67;81.73;100252.75;5072178;28;20208;-68
2020/12/31 09:05:38;;;;;;;10.48;4.35;;;4.10;99.90;;;4.65;81.66;100254.53;5071808;28;20184;-68
2020/12/31 09:08:07;;;;;;;12.80;4.30;;;4.10;99.90;;;4.68;81.35;100257.06;5068195;28;20193;-68
2020/12/31 09:10:35;;;;;;;12.95;4.38;;;4.10;99.90;;;4.78;81.58;100265.47;5067178;28;20207;-68
2020/12/31 09:13:03;;;;;;;10.65;4.10;;;4.20;99.90;;;4.80;81.41;100256.81;5071910;28;20212;-68
2020/12/31 09:15:30;;;;;;;12.45;4.63;;;4.20;99.90;;;4.84;81.65;100266.19;5071877;28;20196;-68
2020/12/31 09:17:57;;;;;;;10.27;4.25;;;4.30;99.90;;;4.88;81.39;100267.84;5071774;28;20262;-68
2020/12/31 09:20:26;;;;;;;13.68;4.65;;;4.30;99.90;;;4.90;81.32;100266.09;5071039;28;20187;-69
2020/12/31 09:23:08;;;;;;;11.05;4.47;;;4.30;99.90;;;4.90;80.95;100268.69;5070168;28;20216;-68
2020/12/31 09:25:34;;;;;;;10.68;4.00;;;4.40;99.90;;;4.91;80.93;100261.72;5071955;28;20191;-68
2020/12/31 09:28:00;;;;;;;9.52;3.92;;;4.40;99.90;;;4.89;80.56;100259.19;5070292;28;20200;-68
2020/12/31 09:30:30;;;;;;;12.38;4.28;;;4.40;99.90;;;4.90;80.59;100252.25;5071713;28;20180;-68
2020/12/31 09:32:56;;;;;;;9.88;4.15;;;4.40;99.90;;;4.92;80.39;100260.88;5071554;28;20212;-68
2020/12/31 09:35:23;;;;;;;11.00;4.10;;;4.40;99.90;;;4.97;80.44;100252.06;5071865;28;20188;-68
2020/12/31 09:37:55;;;;;;;14.10;4.43;;;4.40;99.90;;;5.11;80.63;100247.44;5070126;28;20298;-68
2020/12/31 09:40:22;;;;;;;10.52;4.10;;;4.60;99.90;;;5.19;80.69;100246.41;5064946;28;20275;-68
2020/12/31 09:42:48;;;;;;;12.13;4.35;;;4.60;99.90;;;5.14;80.21;100255.13;5069664;28;20240;-68
2020/12/31 09:45:14;;;;;;;10.75;4.30;;;4.60;99.90;;;5.09;79.82;100251.81;5064278;28;20192;-68
2020/12/31 09:47:40;;;;;;;10.98;4.18;;;4.60;99.90;;;5.10;79.78;100253.53;5072175;28;20199;-68
2020/12/31 09:50:11;;;;;;;12.07;4.22;;;4.60;99.90;;;5.14;80.08;100255.13;5067526;28;20204;-68
2020/12/31 09:52:39;;;;;;;10.80;3.67;;;4.70;99.90;;;5.24;80.05;100255.81;5067806;28;20212;-68
2020/12/31 09:55:07;;;;;;;10.07;3.60;;;4.80;99.90;;;5.29;79.81;100255.69;5071491;28;20184;-67
2020/12/31 09:57:34;;;;;;;9.73;3.95;;;4.80;99.90;;;5.28;79.81;100256.56;5071602;28;20278;-68
2020/12/31 10:00:00;;;;;;;10.77;4.25;;;4.90;99.90;;;5.30;79.47;100250.47;5071586;28;20191;-68
2020/12/31 10:02:26;;;;;;;10.65;4.07;;;4.90;99.90;;;5.36;79.35;100252.88;5071325;28;20207;-68
2020/12/31 10:04:53;;;;;;;10.60;3.92;;;5.00;99.90;;;5.39;79.02;100246.78;5071372;28;20184;-67
2020/12/31 10:07:19;;;;;;;9.93;3.90;;;5.00;99.90;;;5.40;78.71;100243.28;5070982;28;20230;-68
2020/12/31 10:09:45;;;;;;;11.27;3.58;;;5.00;99.90;;;5.42;78.67;100238.94;5071015;28;20181;-68
2020/12/31 10:12:13;;;;;;;10.57;4.50;;;5.00;99.90;;;5.46;78.34;100236.22;5071004;28;20216;-68
2020/12/31 10:14:40;;;;;;;9.98;3.85;;;5.00;99.90;;;5.51;78.28;100238.72;5071243;28;20266;-68
2020/12/31 10:17:08;;;;;;;11.23;4.25;;;5.00;99.90;;;5.53;77.96;100236.91;5071551;28;20190;-68
2020/12/31 10:19:34;;;;;;;9.88;3.88;;;5.00;99.90;;;5.58;77.94;100230.72;5070748;28;20192;-68
2020/12/31 10:22:01;;;;;;;9.93;4.10;;;5.10;99.90;;;5.62;77.83;100223.72;5061956;28;20712;-68
2020/12/31 10:24:27;;;;;;;10.38;4.32;;;5.10;99.90;;;5.68;77.86;100228.72;5070865;28;20176;-68
2020/12/31 10:26:53;;;;;;;10.32;4.13;;;5.20;99.90;;;5.67;77.68;100227.03;5069644;28;20573;-68